sensor_id;sensor_type;location;lat;lon;timestamp;P1;durP1;ratioP1;P2;durP2;ratioP2
1122;SDS011;548;48.778;9.252;2022-12-20T03:53:46;35.47;;;31.87;;
1122;SDS011;548;48.778;9.252;2022-12-20T03:56:12;36.47;;;32.90;;
1122;SDS011;548;48.778;9.252;2022-12-20T03:58:39;36.50;;;32.67;;
1122;SDS011;548;48.778;9.252;2022-12-20T04:01:15;34.20;;;30.70;;
1122;SDS011;548;48.778;9.252;2022-12-20T04:03:43;34.40;;;30.77;;
1122;SDS011;548;48.778;9.252;2022-12-20T04:06:10;32.53;;;29.40;;
1122;SDS011;548;48.778;9.252;2022-12-20T04:08:36;34.40;;;31.20;;
1122;SDS011;548;48.778;9.252;2022-12-20T04:11:04;39.03;;;35.33;;
1122;SDS011;548;48.778;9.252;2022-12-20T04:13:44;38.30;;;34.37;;
1122;SDS011;548;48.778;9.252;2022-12-20T04:16:12;32.90;;;29.50;;
1122;SDS011;548;48.778;9.252;2022-12-20T04:18:41;31.70;;;28.50;;
1122;SDS011;548;48.778;9.252;2022-12-20T04:21:08;37.73;;;34.00;;
1122;SDS011;548;48.778;9.252;2022-12-20T04:23:35;36.90;;;32.50;;
1122;SDS011;548;48.778;9.252;2022-12-20T04:26:05;34.27;;;30.97;;
1122;SDS011;548;48.778;9.252;2022-12-20T04:28:33;35.77;;;32.07;;
1122;SDS011;548;48.778;9.252;2022-12-20T04:31:01;36.17;;;31.90;;
1122;SDS011;548;48.778;9.252;2022-12-20T04:33:28;29.43;;;26.40;;
1122;SDS011;548;48.778;9.252;2022-12-20T04:35:55;29.83;;;27.13;;
1122;SDS011;548;48.778;9.252;2022-12-20T04:38:22;31.40;;;28.40;;
1122;SDS011;548;48.778;9.252;2022-12-20T04:40:49;34.70;;;31.10;;
1122;SDS011;548;48.778;9.252;2022-12-20T04:43:17;32.43;;;29.07;;
1122;SDS011;548;48.778;9.252;2022-12-20T04:45:46;33.93;;;30.50;;
1122;SDS011;548;48.778;9.252;2022-12-20T04:48:13;28.40;;;25.80;;
1122;SDS011;548;48.778;9.252;2022-12-20T04:50:40;36.23;;;29.20;;
1122;SDS011;548;48.778;9.252;2022-12-20T04:53:07;33.63;;;30.23;;
1122;SDS011;548;48.778;9.252;2022-12-20T04:55:53;30.87;;;28.07;;
1122;SDS011;548;48.778;9.252;2022-12-20T04:58:22;34.07;;;30.80;;
1122;SDS011;548;48.778;9.252;2022-12-20T05:00:49;36.67;;;33.07;;
1122;SDS011;548;48.778;9.252;2022-12-20T05:03:17;34.77;;;31.33;;
1122;SDS011;548;48.778;9.252;2022-12-20T05:05:43;34.30;;;30.60;;
1122;SDS011;548;48.778;9.252;2022-12-20T05:08:10;35.03;;;31.50;;
1122;SDS011;548;48.778;9.252;2022-12-20T05:10:37;34.57;;;31.07;;
1122;SDS011;548;48.778;9.252;2022-12-20T05:13:04;33.53;;;29.90;;
1122;SDS011;548;48.778;9.252;2022-12-20T05:15:32;37.03;;;31.00;;
1122;SDS011;548;48.778;9.252;2022-12-20T05:17:59;37.87;;;33.97;;
1122;SDS011;548;48.778;9.252;2022-12-20T05:20:26;34.53;;;31.40;;
1122;SDS011;548;48.778;9.252;2022-12-20T05:22:53;32.77;;;29.27;;
1122;SDS011;548;48.778;9.252;2022-12-20T05:25:38;33.20;;;29.47;;
1122;SDS011;548;48.778;9.252;2022-12-20T05:28:25;33.97;;;30.67;;
1122;SDS011;548;48.778;9.252;2022-12-20T05:30:54;35.67;;;32.03;;
1122;SDS011;548;48.778;9.252;2022-12-20T05:33:20;34.57;;;31.07;;
1122;SDS011;548;48.778;9.252;2022-12-20T05:35:47;38.20;;;34.50;;
1122;SDS011;548;48.778;9.252;2022-12-20T05:38:14;34.00;;;30.60;;
1122;SDS011;548;48.778;9.252;2022-12-20T05:40:41;34.63;;;31.27;;
1122;SDS011;548;48.778;9.252;2022-12-20T05:43:08;35.27;;;31.77;;
1122;SDS011;548;48.778;9.252;2022-12-20T05:45:35;33.70;;;30.53;;
1122;SDS011;548;48.778;9.252;2022-12-20T05:48:03;33.13;;;29.67;;
1122;SDS011;548;48.778;9.252;2022-12-20T05:50:30;33.60;;;30.77;;
1122;SDS011;548;48.778;9.252;2022-12-20T05:52:57;35.10;;;30.80;;
1122;SDS011;548;48.778;9.252;2022-12-20T05:55:24;34.80;;;31.40;;
1122;SDS011;548;48.778;9.252;2022-12-20T05:57:51;34.47;;;31.13;;
1122;SDS011;548;48.778;9.252;2022-12-20T06:00:17;36.00;;;32.60;;
1122;SDS011;548;48.778;9.252;2022-12-20T06:02:45;34.30;;;30.80;;
1122;SDS011;548;48.778;9.252;2022-12-20T06:05:13;34.00;;;30.90;;
1122;SDS011;548;48.778;9.252;2022-12-20T06:07:40;33.10;;;29.97;;
1122;SDS011;548;48.778;9.252;2022-12-20T06:10:08;32.03;;;28.83;;
1122;SDS011;548;48.778;9.252;2022-12-20T06:12:36;33.43;;;29.93;;
1122;SDS011;548;48.778;9.252;2022-12-20T06:15:03;35.20;;;32.00;;
1122;SDS011;548;48.778;9.252;2022-12-20T06:17:30;40.33;;;36.30;;
1122;SDS011;548;48.778;9.252;2022-12-20T06:19:57;35.77;;;31.97;;
1122;SDS011;548;48.778;9.252;2022-12-20T06:22:25;34.57;;;31.47;;
1122;SDS011;548;48.778;9.252;2022-12-20T06:24:52;36.50;;;32.77;;
1122;SDS011;548;48.778;9.252;2022-12-20T06:27:19;39.27;;;35.10;;
1122;SDS011;548;48.778;9.252;2022-12-20T06:29:47;34.00;;;30.70;;
1122;SDS011;548;48.778;9.252;2022-12-20T06:32:16;35.33;;;29.80;;
1122;SDS011;548;48.778;9.252;2022-12-20T06:34:43;32.43;;;29.53;;
1122;SDS011;548;48.778;9.252;2022-12-20T06:37:09;35.90;;;32.10;;
1122;SDS011;548;48.778;9.252;2022-12-20T06:39:37;34.20;;;30.70;;
1122;SDS011;548;48.778;9.252;2022-12-20T06:42:04;33.90;;;29.80;;
1122;SDS011;548;48.778;9.252;2022-12-20T06:44:32;35.47;;;31.93;;
1122;SDS011;548;48.778;9.252;2022-12-20T06:46:58;34.20;;;30.80;;
1122;SDS011;548;48.778;9.252;2022-12-20T06:49:25;34.60;;;30.57;;
1122;SDS011;548;48.778;9.252;2022-12-20T06:51:52;34.40;;;30.97;;
1122;SDS011;548;48.778;9.252;2022-12-20T06:54:18;35.20;;;31.60;;
1122;SDS011;548;48.778;9.252;2022-12-20T06:56:47;36.13;;;32.17;;
1122;SDS011;548;48.778;9.252;2022-12-20T06:59:13;35.10;;;31.90;;
1122;SDS011;548;48.778;9.252;2022-12-20T07:01:41;31.53;;;28.57;;
1122;SDS011;548;48.778;9.252;2022-12-20T07:04:08;35.20;;;31.67;;
1122;SDS011;548;48.778;9.252;2022-12-20T07:06:35;33.73;;;30.57;;
1122;SDS011;548;48.778;9.252;2022-12-20T07:09:02;37.40;;;33.00;;
1122;SDS011;548;48.778;9.252;2022-12-20T07:11:29;35.53;;;31.93;;
1122;SDS011;548;48.778;9.252;2022-12-20T07:13:57;35.37;;;32.23;;
1122;SDS011;548;48.778;9.252;2022-12-20T07:16:24;33.00;;;29.80;;
1122;SDS011;548;48.778;9.252;2022-12-20T07:18:50;33.00;;;29.53;;
1122;SDS011;548;48.778;9.252;2022-12-20T07:21:18;35.27;;;31.60;;
1122;SDS011;548;48.778;9.252;2022-12-20T07:23:46;35.77;;;32.10;;
1122;SDS011;548;48.778;9.252;2022-12-20T07:26:13;37.00;;;33.20;;
1122;SDS011;548;48.778;9.252;2022-12-20T07:28:41;33.17;;;29.87;;
1122;SDS011;548;48.778;9.252;2022-12-20T07:31:10;33.13;;;29.60;;
1122;SDS011;548;48.778;9.252;2022-12-20T07:33:36;33.63;;;29.20;;
1122;SDS011;548;48.778;9.252;2022-12-20T07:36:04;34.60;;;31.30;;
1122;SDS011;548;48.778;9.252;2022-12-20T07:38:32;37.30;;;33.53;;
1122;SDS011;548;48.778;9.252;2022-12-20T07:40:59;33.20;;;29.80;;
1122;SDS011;548;48.778;9.252;2022-12-20T07:43:26;34.80;;;31.30;;
1122;SDS011;548;48.778;9.252;2022-12-20T07:45:53;32.93;;;29.80;;
1122;SDS011;548;48.778;9.252;2022-12-20T07:48:22;38.00;;;34.03;;
1122;SDS011;548;48.778;9.252;2022-12-20T07:50:50;36.50;;;32.77;;
1122;SDS011;548;48.778;9.252;2022-12-20T07:53:18;38.37;;;30.47;;
1122;SDS011;548;48.778;9.252;2022-12-20T07:55:45;33.70;;;30.43;;
1122;SDS011;548;48.778;9.252;2022-12-20T07:58:14;32.50;;;29.03;;
1122;SDS011;548;48.778;9.252;2022-12-20T08:00:43;32.97;;;29.53;;
1122;SDS011;548;48.778;9.252;2022-12-20T08:03:10;32.80;;;29.40;;
1122;SDS011;548;48.778;9.252;2022-12-20T08:05:42;31.63;;;28.23;;
1122;SDS011;548;48.778;9.252;2022-12-20T08:08:12;29.97;;;27.23;;
1122;SDS011;548;48.778;9.252;2022-12-20T08:10:41;33.40;;;30.10;;
1122;SDS011;548;48.778;9.252;2022-12-20T08:13:08;32.10;;;29.00;;
1122;SDS011;548;48.778;9.252;2022-12-20T08:15:35;36.37;;;31.97;;
1122;SDS011;548;48.778;9.252;2022-12-20T08:18:02;31.23;;;28.63;;
1122;SDS011;548;48.778;9.252;2022-12-20T08:20:30;33.10;;;29.70;;
1122;SDS011;548;48.778;9.252;2022-12-20T08:22:58;32.50;;;29.30;;
1122;SDS011;548;48.778;9.252;2022-12-20T08:25:24;31.13;;;28.37;;
1122;SDS011;548;48.778;9.252;2022-12-20T08:27:51;29.00;;;26.20;;
1122;SDS011;548;48.778;9.252;2022-12-20T08:30:18;29.67;;;27.00;;
1122;SDS011;548;48.778;9.252;2022-12-20T08:32:45;30.20;;;27.17;;
1122;SDS011;548;48.778;9.252;2022-12-20T08:35:11;28.37;;;26.00;;
1122;SDS011;548;48.778;9.252;2022-12-20T14:39:22;26.53;;;23.90;;
1122;SDS011;548;48.778;9.252;2022-12-20T14:41:54;29.63;;;27.03;;
1122;SDS011;548;48.778;9.252;2022-12-20T14:44:23;26.93;;;24.67;;
1122;SDS011;548;48.778;9.252;2022-12-20T14:46:51;27.73;;;25.17;;
1122;SDS011;548;48.778;9.252;2022-12-20T14:49:21;26.97;;;24.57;;
1122;SDS011;548;48.778;9.252;2022-12-20T14:51:49;25.90;;;23.70;;
1122;SDS011;548;48.778;9.252;2022-12-20T14:54:17;26.70;;;24.23;;
1122;SDS011;548;48.778;9.252;2022-12-20T14:56:47;27.60;;;25.37;;
1122;SDS011;548;48.778;9.252;2022-12-20T14:59:16;29.67;;;26.50;;
1122;SDS011;548;48.778;9.252;2022-12-20T15:01:49;25.83;;;23.70;;
1122;SDS011;548;48.778;9.252;2022-12-20T15:04:20;26.17;;;23.87;;
1122;SDS011;548;48.778;9.252;2022-12-20T15:06:49;27.50;;;24.77;;
1122;SDS011;548;48.778;9.252;2022-12-20T15:09:17;27.20;;;24.67;;
1122;SDS011;548;48.778;9.252;2022-12-20T15:11:44;26.50;;;24.57;;
1122;SDS011;548;48.778;9.252;2022-12-20T15:14:18;26.70;;;24.50;;
1122;SDS011;548;48.778;9.252;2022-12-20T15:16:58;25.00;;;22.80;;
1122;SDS011;548;48.778;9.252;2022-12-20T15:19:25;23.33;;;21.10;;
1122;SDS011;548;48.778;9.252;2022-12-20T15:21:51;25.03;;;22.60;;
1122;SDS011;548;48.778;9.252;2022-12-20T15:24:19;25.93;;;23.70;;
1122;SDS011;548;48.778;9.252;2022-12-20T15:26:51;27.33;;;25.03;;
1122;SDS011;548;48.778;9.252;2022-12-20T15:29:18;27.03;;;24.57;;
1122;SDS011;548;48.778;9.252;2022-12-20T15:31:46;26.57;;;24.17;;
1122;SDS011;548;48.778;9.252;2022-12-20T15:34:14;25.87;;;23.87;;
1122;SDS011;548;48.778;9.252;2022-12-20T15:36:44;22.77;;;21.10;;
1122;SDS011;548;48.778;9.252;2022-12-20T15:39:11;23.07;;;20.97;;
1122;SDS011;548;48.778;9.252;2022-12-20T15:41:39;24.03;;;21.97;;
1122;SDS011;548;48.778;9.252;2022-12-20T15:44:11;25.47;;;23.47;;
1122;SDS011;548;48.778;9.252;2022-12-20T15:46:40;22.70;;;20.70;;
1122;SDS011;548;48.778;9.252;2022-12-20T15:49:08;26.93;;;24.80;;
1122;SDS011;548;48.778;9.252;2022-12-20T15:51:39;27.23;;;24.27;;
1122;SDS011;548;48.778;9.252;2022-12-20T15:54:11;28.87;;;26.17;;
1122;SDS011;548;48.778;9.252;2022-12-20T15:56:45;28.27;;;24.90;;
1122;SDS011;548;48.778;9.252;2022-12-20T15:59:13;27.07;;;24.73;;
1122;SDS011;548;48.778;9.252;2022-12-20T16:01:40;26.80;;;24.70;;
1122;SDS011;548;48.778;9.252;2022-12-20T16:04:09;27.10;;;24.80;;
1122;SDS011;548;48.778;9.252;2022-12-20T16:06:40;24.30;;;22.50;;
1122;SDS011;548;48.778;9.252;2022-12-20T16:09:07;29.10;;;26.53;;
1122;SDS011;548;48.778;9.252;2022-12-20T16:11:34;27.60;;;25.03;;
1122;SDS011;548;48.778;9.252;2022-12-20T16:14:01;28.97;;;26.27;;
1122;SDS011;548;48.778;9.252;2022-12-20T16:16:30;27.57;;;25.17;;
1122;SDS011;548;48.778;9.252;2022-12-20T16:18:58;24.87;;;22.83;;
1122;SDS011;548;48.778;9.252;2022-12-20T16:21:26;27.07;;;24.73;;
1122;SDS011;548;48.778;9.252;2022-12-20T16:23:56;27.90;;;25.40;;
1122;SDS011;548;48.778;9.252;2022-12-20T16:26:24;27.73;;;25.43;;
1122;SDS011;548;48.778;9.252;2022-12-20T16:28:51;25.63;;;23.73;;
1122;SDS011;548;48.778;9.252;2022-12-20T16:31:20;29.10;;;26.77;;
1122;SDS011;548;48.778;9.252;2022-12-20T16:33:51;29.07;;;26.30;;
1122;SDS011;548;48.778;9.252;2022-12-20T16:36:18;29.07;;;26.37;;
1122;SDS011;548;48.778;9.252;2022-12-20T16:38:45;27.30;;;25.03;;
1122;SDS011;548;48.778;9.252;2022-12-20T16:41:12;26.90;;;24.17;;
1122;SDS011;548;48.778;9.252;2022-12-20T16:43:41;27.03;;;24.63;;
1122;SDS011;548;48.778;9.252;2022-12-20T16:46:09;24.37;;;22.27;;
1122;SDS011;548;48.778;9.252;2022-12-20T16:48:37;24.90;;;22.77;;
1122;SDS011;548;48.778;9.252;2022-12-20T16:51:11;27.00;;;24.70;;
1122;SDS011;548;48.778;9.252;2022-12-20T16:53:48;24.07;;;22.17;;
1122;SDS011;548;48.778;9.252;2022-12-20T16:56:15;27.07;;;24.53;;
1122;SDS011;548;48.778;9.252;2022-12-20T16:58:42;28.30;;;25.47;;
1122;SDS011;548;48.778;9.252;2022-12-20T17:01:10;26.97;;;24.63;;
1122;SDS011;548;48.778;9.252;2022-12-20T17:03:41;25.83;;;23.63;;
1122;SDS011;548;48.778;9.252;2022-12-20T17:06:08;31.13;;;23.47;;
1122;SDS011;548;48.778;9.252;2022-12-20T17:08:37;25.77;;;23.50;;
1122;SDS011;548;48.778;9.252;2022-12-20T17:11:08;23.37;;;21.47;;
1122;SDS011;548;48.778;9.252;2022-12-20T17:13:39;25.73;;;23.60;;
1122;SDS011;548;48.778;9.252;2022-12-20T17:16:07;28.87;;;26.17;;
1122;SDS011;548;48.778;9.252;2022-12-20T17:18:35;25.23;;;22.90;;
1122;SDS011;548;48.778;9.252;2022-12-20T17:21:02;25.47;;;23.07;;
1122;SDS011;548;48.778;9.252;2022-12-20T17:23:39;26.13;;;24.13;;
1122;SDS011;548;48.778;9.252;2022-12-20T17:26:06;26.77;;;24.63;;
1122;SDS011;548;48.778;9.252;2022-12-20T17:28:34;26.37;;;24.37;;
1122;SDS011;548;48.778;9.252;2022-12-20T17:31:01;29.50;;;26.47;;
1122;SDS011;548;48.778;9.252;2022-12-20T17:33:28;26.50;;;24.40;;
1122;SDS011;548;48.778;9.252;2022-12-20T17:35:54;25.03;;;22.90;;
1122;SDS011;548;48.778;9.252;2022-12-20T17:38:21;24.90;;;22.90;;
1122;SDS011;548;48.778;9.252;2022-12-20T17:40:49;26.93;;;24.50;;
1122;SDS011;548;48.778;9.252;2022-12-20T17:43:16;25.07;;;22.80;;
1122;SDS011;548;48.778;9.252;2022-12-20T17:45:42;26.23;;;23.90;;
1122;SDS011;548;48.778;9.252;2022-12-20T17:48:09;27.83;;;25.33;;
1122;SDS011;548;48.778;9.252;2022-12-20T17:50:36;29.07;;;26.37;;
1122;SDS011;548;48.778;9.252;2022-12-20T17:53:03;29.67;;;27.07;;
1122;SDS011;548;48.778;9.252;2022-12-20T17:55:29;30.20;;;27.63;;
1122;SDS011;548;48.778;9.252;2022-12-20T17:57:58;29.67;;;26.90;;
1122;SDS011;548;48.778;9.252;2022-12-20T18:00:25;27.80;;;25.27;;
1122;SDS011;548;48.778;9.252;2022-12-20T18:02:53;32.70;;;29.40;;
1122;SDS011;548;48.778;9.252;2022-12-20T18:05:21;30.27;;;27.43;;
1122;SDS011;548;48.778;9.252;2022-12-20T18:07:49;28.23;;;25.87;;
1122;SDS011;548;48.778;9.252;2022-12-20T18:10:17;29.07;;;26.33;;
1122;SDS011;548;48.778;9.252;2022-12-20T18:12:44;29.43;;;26.73;;
1122;SDS011;548;48.778;9.252;2022-12-20T18:15:12;30.83;;;26.70;;
1122;SDS011;548;48.778;9.252;2022-12-20T18:17:39;29.27;;;26.53;;
1122;SDS011;548;48.778;9.252;2022-12-20T18:20:06;28.07;;;25.70;;
1122;SDS011;548;48.778;9.252;2022-12-20T18:22:34;28.70;;;26.20;;
1122;SDS011;548;48.778;9.252;2022-12-20T18:25:01;28.93;;;26.17;;
1122;SDS011;548;48.778;9.252;2022-12-20T18:27:34;29.50;;;26.70;;
1122;SDS011;548;48.778;9.252;2022-12-20T18:30:02;30.63;;;27.40;;
1122;SDS011;548;48.778;9.252;2022-12-20T18:32:31;30.90;;;27.73;;
1122;SDS011;548;48.778;9.252;2022-12-20T18:34:58;27.60;;;24.70;;
1122;SDS011;548;48.778;9.252;2022-12-20T18:37:25;28.77;;;25.43;;
1122;SDS011;548;48.778;9.252;2022-12-20T18:39:51;30.70;;;27.90;;
1122;SDS011;548;48.778;9.252;2022-12-20T18:42:18;29.27;;;26.27;;
1122;SDS011;548;48.778;9.252;2022-12-20T18:44:45;43.93;;;27.67;;
1122;SDS011;548;48.778;9.252;2022-12-20T18:47:12;31.07;;;28.27;;
1122;SDS011;548;48.778;9.252;2022-12-20T18:49:40;29.93;;;27.20;;
1122;SDS011;548;48.778;9.252;2022-12-20T18:52:06;29.47;;;26.73;;
1122;SDS011;548;48.778;9.252;2022-12-20T18:54:33;26.23;;;23.90;;
1122;SDS011;548;48.778;9.252;2022-12-20T18:57:00;26.77;;;24.47;;
1122;SDS011;548;48.778;9.252;2022-12-20T18:59:29;29.43;;;26.90;;
1122;SDS011;548;48.778;9.252;2022-12-20T19:01:56;29.87;;;27.33;;
1122;SDS011;548;48.778;9.252;2022-12-20T19:04:23;28.73;;;26.33;;
1122;SDS011;548;48.778;9.252;2022-12-20T19:06:51;26.17;;;23.87;;
1122;SDS011;548;48.778;9.252;2022-12-20T19:09:18;29.23;;;26.80;;
1122;SDS011;548;48.778;9.252;2022-12-20T19:11:45;28.00;;;25.30;;
1122;SDS011;548;48.778;9.252;2022-12-20T19:14:12;28.40;;;25.90;;
1122;SDS011;548;48.778;9.252;2022-12-20T19:16:39;30.07;;;27.30;;
1122;SDS011;548;48.778;9.252;2022-12-20T19:19:06;30.27;;;27.50;;
1122;SDS011;548;48.778;9.252;2022-12-20T19:21:35;29.60;;;27.20;;
1122;SDS011;548;48.778;9.252;2022-12-20T19:24:04;31.33;;;28.43;;
1122;SDS011;548;48.778;9.252;2022-12-20T19:26:32;30.80;;;27.90;;
1122;SDS011;548;48.778;9.252;2022-12-20T19:29:00;28.23;;;25.47;;
1122;SDS011;548;48.778;9.252;2022-12-20T19:31:28;29.77;;;27.10;;
1122;SDS011;548;48.778;9.252;2022-12-20T19:33:58;29.10;;;26.27;;
1122;SDS011;548;48.778;9.252;2022-12-20T19:36:26;33.20;;;30.10;;
1122;SDS011;548;48.778;9.252;2022-12-20T19:38:55;32.03;;;29.03;;
1122;SDS011;548;48.778;9.252;2022-12-20T19:41:24;29.83;;;27.33;;
1122;SDS011;548;48.778;9.252;2022-12-20T19:43:52;29.67;;;27.13;;
1122;SDS011;548;48.778;9.252;2022-12-20T19:46:20;30.60;;;28.00;;
1122;SDS011;548;48.778;9.252;2022-12-20T19:48:47;34.27;;;29.33;;
1122;SDS011;548;48.778;9.252;2022-12-20T19:51:15;30.80;;;28.20;;
1122;SDS011;548;48.778;9.252;2022-12-20T19:53:43;28.97;;;26.67;;
1122;SDS011;548;48.778;9.252;2022-12-20T19:56:12;27.67;;;25.10;;
1122;SDS011;548;48.778;9.252;2022-12-20T19:58:42;26.73;;;24.50;;
1122;SDS011;548;48.778;9.252;2022-12-20T20:01:09;27.67;;;24.97;;
1122;SDS011;548;48.778;9.252;2022-12-20T20:03:37;27.27;;;24.87;;
1122;SDS011;548;48.778;9.252;2022-12-20T20:06:19;26.87;;;24.67;;
1122;SDS011;548;48.778;9.252;2022-12-20T20:08:46;26.40;;;23.87;;
1122;SDS011;548;48.778;9.252;2022-12-20T20:11:13;25.20;;;22.90;;
1122;SDS011;548;48.778;9.252;2022-12-20T20:13:42;27.03;;;24.23;;
1122;SDS011;548;48.778;9.252;2022-12-20T20:16:09;29.20;;;26.70;;
1122;SDS011;548;48.778;9.252;2022-12-20T20:18:37;29.27;;;26.63;;
1122;SDS011;548;48.778;9.252;2022-12-20T20:21:04;30.40;;;27.80;;
1122;SDS011;548;48.778;9.252;2022-12-20T20:23:33;28.77;;;26.27;;
1122;SDS011;548;48.778;9.252;2022-12-20T20:26:00;28.10;;;25.70;;
1122;SDS011;548;48.778;9.252;2022-12-20T20:28:30;31.07;;;28.30;;
1122;SDS011;548;48.778;9.252;2022-12-20T20:30:58;28.47;;;26.10;;
1122;SDS011;548;48.778;9.252;2022-12-20T20:33:25;29.73;;;26.93;;
1122;SDS011;548;48.778;9.252;2022-12-20T20:35:52;26.93;;;24.83;;
1122;SDS011;548;48.778;9.252;2022-12-20T20:38:19;28.50;;;25.73;;
1122;SDS011;548;48.778;9.252;2022-12-20T20:40:46;47.73;;;30.43;;
1122;SDS011;548;48.778;9.252;2022-12-20T20:43:13;33.20;;;30.73;;
1122;SDS011;548;48.778;9.252;2022-12-20T20:45:40;34.57;;;31.80;;
1122;SDS011;548;48.778;9.252;2022-12-20T20:48:08;40.57;;;37.27;;
1122;SDS011;548;48.778;9.252;2022-12-20T20:50:35;40.70;;;37.50;;
1122;SDS011;548;48.778;9.252;2022-12-20T20:53:01;37.80;;;34.70;;
1122;SDS011;548;48.778;9.252;2022-12-20T20:55:30;38.07;;;35.27;;
1122;SDS011;548;48.778;9.252;2022-12-20T20:57:56;35.33;;;32.87;;
1122;SDS011;548;48.778;9.252;2022-12-20T21:00:23;34.63;;;32.27;;
1122;SDS011;548;48.778;9.252;2022-12-20T21:02:50;35.27;;;32.67;;
1122;SDS011;548;48.778;9.252;2022-12-20T21:05:18;34.60;;;31.90;;
1122;SDS011;548;48.778;9.252;2022-12-20T21:07:44;39.33;;;36.17;;
1122;SDS011;548;48.778;9.252;2022-12-20T21:10:11;40.87;;;37.97;;
1122;SDS011;548;48.778;9.252;2022-12-20T21:12:38;42.67;;;39.57;;
1122;SDS011;548;48.778;9.252;2022-12-20T21:15:05;42.70;;;39.63;;
1122;SDS011;548;48.778;9.252;2022-12-20T21:17:32;45.00;;;41.60;;
1122;SDS011;548;48.778;9.252;2022-12-20T21:19:59;46.17;;;42.70;;
1122;SDS011;548;48.778;9.252;2022-12-20T21:22:27;45.60;;;42.27;;
1122;SDS011;548;48.778;9.252;2022-12-20T21:24:54;49.23;;;45.23;;
1122;SDS011;548;48.778;9.252;2022-12-20T21:27:23;50.57;;;46.37;;
1122;SDS011;548;48.778;9.252;2022-12-20T21:29:49;49.60;;;45.17;;
1122;SDS011;548;48.778;9.252;2022-12-20T21:32:16;48.97;;;44.20;;
1122;SDS011;548;48.778;9.252;2022-12-20T21:34:43;47.03;;;43.07;;
1122;SDS011;548;48.778;9.252;2022-12-20T21:37:10;47.57;;;43.30;;
1122;SDS011;548;48.778;9.252;2022-12-20T21:39:38;46.17;;;42.20;;
1122;SDS011;548;48.778;9.252;2022-12-20T21:42:05;46.50;;;42.70;;
1122;SDS011;548;48.778;9.252;2022-12-20T21:44:31;44.87;;;40.80;;
1122;SDS011;548;48.778;9.252;2022-12-20T21:46:58;46.20;;;42.10;;
1122;SDS011;548;48.778;9.252;2022-12-20T21:49:25;47.97;;;43.70;;
1122;SDS011;548;48.778;9.252;2022-12-20T21:51:52;47.80;;;43.60;;
1122;SDS011;548;48.778;9.252;2022-12-20T21:54:20;48.10;;;43.90;;
1122;SDS011;548;48.778;9.252;2022-12-20T21:56:48;48.50;;;44.10;;
1122;SDS011;548;48.778;9.252;2022-12-20T21:59:15;48.87;;;44.47;;
1122;SDS011;548;48.778;9.252;2022-12-20T22:01:42;49.23;;;44.83;;
1122;SDS011;548;48.778;9.252;2022-12-20T22:04:11;49.87;;;45.70;;
1122;SDS011;548;48.778;9.252;2022-12-20T22:06:39;52.80;;;47.43;;
1122;SDS011;548;48.778;9.252;2022-12-20T22:09:07;50.77;;;46.33;;
1122;SDS011;548;48.778;9.252;2022-12-20T22:11:35;50.93;;;46.23;;
1122;SDS011;548;48.778;9.252;2022-12-20T22:14:04;50.13;;;45.80;;
1122;SDS011;548;48.778;9.252;2022-12-20T22:16:31;51.90;;;47.30;;
1122;SDS011;548;48.778;9.252;2022-12-20T22:18:59;51.90;;;47.30;;
1122;SDS011;548;48.778;9.252;2022-12-20T22:21:26;50.77;;;45.97;;
1122;SDS011;548;48.778;9.252;2022-12-20T22:23:55;48.83;;;44.10;;
1122;SDS011;548;48.778;9.252;2022-12-20T22:26:24;53.10;;;48.53;;
1122;SDS011;548;48.778;9.252;2022-12-20T22:28:52;49.90;;;45.37;;
1122;SDS011;548;48.778;9.252;2022-12-20T22:31:24;48.73;;;44.73;;
1122;SDS011;548;48.778;9.252;2022-12-20T22:33:51;51.43;;;46.87;;
1122;SDS011;548;48.778;9.252;2022-12-20T22:36:18;50.83;;;46.60;;
1122;SDS011;548;48.778;9.252;2022-12-20T22:38:46;50.53;;;46.10;;
1122;SDS011;548;48.778;9.252;2022-12-20T22:41:16;50.67;;;45.97;;
1122;SDS011;548;48.778;9.252;2022-12-20T22:43:44;50.37;;;45.90;;
1122;SDS011;548;48.778;9.252;2022-12-20T22:46:12;48.40;;;43.83;;
1122;SDS011;548;48.778;9.252;2022-12-20T22:48:42;48.10;;;43.90;;
1122;SDS011;548;48.778;9.252;2022-12-20T22:51:10;49.80;;;45.50;;
1122;SDS011;548;48.778;9.252;2022-12-20T22:53:39;49.30;;;44.90;;
1122;SDS011;548;48.778;9.252;2022-12-20T22:56:06;46.73;;;42.67;;
1122;SDS011;548;48.778;9.252;2022-12-20T22:58:34;46.33;;;42.67;;
1122;SDS011;548;48.778;9.252;2022-12-20T23:01:02;47.20;;;43.00;;
1122;SDS011;548;48.778;9.252;2022-12-20T23:03:30;45.37;;;41.27;;
1122;SDS011;548;48.778;9.252;2022-12-20T23:05:59;46.80;;;42.80;;
1122;SDS011;548;48.778;9.252;2022-12-20T23:08:28;44.07;;;40.57;;
1122;SDS011;548;48.778;9.252;2022-12-20T23:10:56;45.43;;;41.80;;
1122;SDS011;548;48.778;9.252;2022-12-20T23:13:40;45.10;;;41.20;;
1122;SDS011;548;48.778;9.252;2022-12-20T23:16:25;42.83;;;39.00;;
1122;SDS011;548;48.778;9.252;2022-12-20T23:18:52;45.87;;;42.23;;
1122;SDS011;548;48.778;9.252;2022-12-20T23:21:20;43.90;;;40.40;;
1122;SDS011;548;48.778;9.252;2022-12-20T23:24:05;40.93;;;37.87;;
1122;SDS011;548;48.778;9.252;2022-12-20T23:26:33;44.27;;;40.97;;
1122;SDS011;548;48.778;9.252;2022-12-20T23:29:00;41.23;;;38.20;;
1122;SDS011;548;48.778;9.252;2022-12-20T23:31:28;39.67;;;36.73;;
1122;SDS011;548;48.778;9.252;2022-12-20T23:33:55;42.13;;;39.13;;
1122;SDS011;548;48.778;9.252;2022-12-20T23:36:23;38.57;;;35.67;;
1122;SDS011;548;48.778;9.252;2022-12-20T23:38:50;38.23;;;34.83;;
1122;SDS011;548;48.778;9.252;2022-12-20T23:41:17;37.00;;;33.97;;
1122;SDS011;548;48.778;9.252;2022-12-20T23:43:43;36.67;;;33.87;;
1122;SDS011;548;48.778;9.252;2022-12-20T23:46:11;41.67;;;38.37;;
1122;SDS011;548;48.778;9.252;2022-12-20T23:48:39;42.77;;;39.57;;
1122;SDS011;548;48.778;9.252;2022-12-20T23:51:06;45.13;;;41.43;;
1122;SDS011;548;48.778;9.252;2022-12-20T23:53:34;46.67;;;42.77;;
1122;SDS011;548;48.778;9.252;2022-12-20T23:56:02;46.53;;;42.33;;
1122;SDS011;548;48.778;9.252;2022-12-20T23:58:32;45.00;;;40.97;;
